Brian Head, Utah
Current Conditions -  °F | °C
As of 5:40 AM on Thursday 18 Dec 2014 (Local Time) from KCDC Reporting Station
Moderate Fog Moderate Fog  
Wind Chill: 29°   Ceiling: 100
Heat Index: 29°   Visibility: 0.25mi
Dew Point: 27°   Wind: 0mph
Humidity: 92%   Direction: NA
Pressure: 30.07"   Gusts: NA
Location:  37.69°N, 112.85°W
Report Text: KCDC 181240Z AUTO 00000KT 1/4SM FZFG VV001 M02/M03 A3007 RMK AO2 T10171028
Loading
Personal Weather Stations






























Interactive Weather Map New forecast layout! Learn more

10-Day Weather Forecast

Advertisements
Track Severe Weather on mobile